Terminal Aerodrome Forecast
Issued by NWS Jackson, MS

Home | Current Version | Previous Version | Text Only | Print | Product List | Glossary On
Versions: 1 2 3 4 5 6 7 8 9 10 11 12 13 14 15 16 17
000
FTUS44 KMEG 281725
TAFTUP
TAF
KTUP 281725Z 2818/2918 20009KT P6SM SKC
     FM290000 20006KT P6SM SCT250 WS015/23035KT
     FM291100 21008KT P6SM FEW009 BKN250
     FM291400 21012KT P6SM BKN010 OVC250=

USA.gov is the U.S. government's official web portal to all federal, state and local government web resources and services.